地図

経路データ

SID SEASON NUMBER BASIN SUBBASIN NAME ISO_TIME NATURE LAT LON WMO_WIND WMO_PRES WMO_AGENCY TRACK_TYPE DIST2LAND LANDFALL IFLAG USA_AGENCY USA_ATCF_ID USA_LAT USA_LON USA_RECORD USA_STATUS USA_WIND USA_PRES USA_SSHS USA_R34_NE USA_R34_SE USA_R34_SW USA_R34_NW USA_R50_NE USA_R50_SE USA_R50_SW USA_R50_NW USA_R64_NE USA_R64_SE USA_R64_SW USA_R64_NW USA_POCI USA_ROCI USA_RMW USA_EYE TOKYO_LAT TOKYO_LON TOKYO_GRADE TOKYO_WIND TOKYO_PRES TOKYO_R50_DIR TOKYO_R50_LONG TOKYO_R50_SHORT TOKYO_R30_DIR TOKYO_R30_LONG TOKYO_R30_SHORT TOKYO_LAND CMA_LAT CMA_LON CMA_CAT CMA_WIND CMA_PRES HKO_LAT HKO_LON HKO_CAT HKO_WIND HKO_PRES NEWDELHI_LAT NEWDELHI_LON NEWDELHI_GRADE NEWDELHI_WIND NEWDELHI_PRES NEWDELHI_CI NEWDELHI_DP NEWDELHI_POCI REUNION_LAT REUNION_LON REUNION_TYPE REUNION_WIND REUNION_PRES REUNION_TNUM REUNION_CI REUNION_RMW REUNION_R34_NE REUNION_R34_SE REUNION_R34_SW REUNION_R34_NW REUNION_R50_NE REUNION_R50_SE REUNION_R50_SW REUNION_R50_NW REUNION_R64_NE REUNION_R64_SE REUNION_R64_SW REUNION_R64_NW BOM_LAT BOM_LON BOM_TYPE BOM_WIND BOM_PRES BOM_TNUM BOM_CI BOM_RMW BOM_R34_NE BOM_R34_SE BOM_R34_SW BOM_R34_NW BOM_R50_NE BOM_R50_SE BOM_R50_SW BOM_R50_NW BOM_R64_NE BOM_R64_SE BOM_R64_SW BOM_R64_NW BOM_ROCI BOM_POCI BOM_EYE BOM_POS_METHOD BOM_PRES_METHOD NADI_LAT NADI_LON NADI_CAT NADI_WIND NADI_PRES WELLINGTON_LAT WELLINGTON_LON WELLINGTON_WIND WELLINGTON_PRES DS824_LAT DS824_LON DS824_STAGE DS824_WIND DS824_PRES TD9636_LAT TD9636_LON TD9636_STAGE TD9636_WIND TD9636_PRES TD9635_LAT TD9635_LON TD9635_WIND TD9635_PRES TD9635_ROCI NEUMANN_LAT NEUMANN_LON NEUMANN_CLASS NEUMANN_WIND NEUMANN_PRES MLC_LAT MLC_LON MLC_CLASS MLC_WIND MLC_PRES USA_GUST BOM_GUST BOM_GUST_PER REUNION_GUST REUNION_GUST_PER USA_SEAHGT USA_SEARAD_NE USA_SEARAD_SE USA_SEARAD_SW USA_SEARAD_NW STORM_SPEED STORM_DIR
2000279N29279 2000 93 NA NA LESLIE 2000-10-04 12:00:00 SS 29.0000 -81.4000 30 1012 hurdat_atl main 0 0 O_____________ hurdat_atl AL162000 29.0000 -81.4000 SD 30 1012 -2 7 41
2000279N29279 2000 93 NA NA LESLIE 2000-10-04 15:00:00 SS 29.2777 -81.1204 main 0 0 P_____________ AL162000 29.2777 -81.1204 SD 30 1012 -2 7 46
2000279N29279 2000 93 NA NA LESLIE 2000-10-04 18:00:00 SS 29.5000 -80.8000 30 1012 hurdat_atl main 31 31 O_____________ hurdat_atl AL162000 29.5000 -80.8000 SD 30 1012 -2 7 61
2000279N29279 2000 93 NA NA LESLIE 2000-10-04 21:00:00 SS 29.6297 -80.4023 main 71 71 P_____________ AL162000 29.6297 -80.4023 SD 30 1011 -2 8 76
2000279N29279 2000 93 NA NA LESLIE 2000-10-05 00:00:00 SS 29.7000 -79.9000 30 1010 hurdat_atl main 117 117 O_____________ hurdat_atl AL162000 29.7000 -79.9000 SD 30 1010 -2 10 83
2000279N29279 2000 93 NA NA LESLIE 2000-10-05 03:00:00 SS 29.7576 -79.2799 main 173 173 P_____________ AL162000 29.7576 -79.2799 SD 30 1010 -2 11 85
2000279N29279 2000 93 NA NA LESLIE 2000-10-05 06:00:00 SS 29.8000 -78.6000 30 1010 hurdat_atl main 234 234 O_____________ hurdat_atl AL162000 29.8000 -78.6000 SD 30 1010 -2 11 86
2000279N29279 2000 93 NA NA LESLIE 2000-10-05 09:00:00 SS 29.8346 -77.9571 main 282 282 P_____________ AL162000 29.8346 -77.9571 SD 32 1009 -2 11 85
2000279N29279 2000 93 NA NA LESLIE 2000-10-05 12:00:00 TS 29.9000 -77.3000 35 1009 hurdat_atl main 347 347 O_____________ hurdat_atl AL162000 29.9000 -77.3000 TS 35 1009 0 12 79
2000279N29279 2000 93 NA NA LESLIE 2000-10-05 15:00:00 TS 30.0495 -76.6229 main 413 413 P_____________ AL162000 30.0495 -76.6229 TS 35 1009 0 12 76
2000279N29279 2000 93 NA NA LESLIE 2000-10-05 18:00:00 TS 30.2000 -75.9000 35 1009 hurdat_atl main 454 454 O_____________ hurdat_atl AL162000 30.2000 -75.9000 TS 35 1009 0 13 81
2000279N29279 2000 93 NA NA LESLIE 2000-10-05 21:00:00 TS 30.2503 -75.0844 main 485 485 P_____________ AL162000 30.2503 -75.0844 TS 35 1009 0 14 86
2000279N29279 2000 93 NA NA LESLIE 2000-10-06 00:00:00 TS 30.3000 -74.3000 35 1010 hurdat_atl main 531 531 O_____________ hurdat_atl AL162000 30.3000 -74.3000 TS 35 1010 0 13 82
2000279N29279 2000 93 NA NA LESLIE 2000-10-06 03:00:00 TS 30.4347 -73.6327 main 550 541 P_____________ AL162000 30.4347 -73.6327 TS 37 1008 0 11 74
2000279N29279 2000 93 NA NA LESLIE 2000-10-06 06:00:00 TS 30.6000 -73.1000 40 1006 hurdat_atl main 556 556 O_____________ hurdat_atl AL162000 30.6000 -73.1000 TS 40 1006 0 9 69
2000279N29279 2000 93 NA NA LESLIE 2000-10-06 09:00:00 TS 30.7421 -72.7047 main 569 561 P_____________ AL162000 30.7421 -72.7047 TS 40 1006 0 7 63
2000279N29279 2000 93 NA NA LESLIE 2000-10-06 12:00:00 TS 30.9000 -72.4000 40 1007 hurdat_atl main 570 568 O_____________ hurdat_atl AL162000 30.9000 -72.4000 TS 40 1007 0 6 57
2000279N29279 2000 93 NA NA LESLIE 2000-10-06 15:00:00 TS 31.0620 -72.1292 main 573 571 P_____________ AL162000 31.0620 -72.1292 TS 40 1007 0 7 52
2000279N29279 2000 93 NA NA LESLIE 2000-10-06 18:00:00 TS 31.3000 -71.8000 40 1007 hurdat_atl main 578 577 O_____________ hurdat_atl AL162000 31.3000 -71.8000 TS 40 1007 0 9 50
2000279N29279 2000 93 NA NA LESLIE 2000-10-06 21:00:00 TS 31.6552 -71.2876 main 585 585 P_____________ AL162000 31.6552 -71.2876 TS 40 1006 0 12 49
2000279N29279 2000 93 NA NA LESLIE 2000-10-07 00:00:00 TS 32.1000 -70.7000 40 1006 hurdat_atl main 603 602 O_____________ hurdat_atl AL162000 32.1000 -70.7000 TS 40 1006 0 13 49
2000279N29279 2000 93 NA NA LESLIE 2000-10-07 03:00:00 TS 32.4871 -70.1623 main 609 609 P_____________ AL162000 32.4871 -70.1623 TS 40 1006 0 14 43
2000279N29279 2000 93 NA NA LESLIE 2000-10-07 06:00:00 TS 33.1000 -69.6000 40 1006 hurdat_atl main 617 611 O_____________ hurdat_atl AL162000 33.1000 -69.6000 TS 40 1006 0 20 30
2000279N29279 2000 93 NA NA LESLIE 2000-10-07 09:00:00 TS 34.1746 -68.9878 main 616 616 P_____________ AL162000 34.1746 -68.9878 TS 40 1006 0 25 25
2000279N29279 2000 93 NA NA LESLIE 2000-10-07 12:00:00 TS 35.4000 -68.3000 40 1006 hurdat_atl main 650 632 O_____________ hurdat_atl AL162000 35.4000 -68.3000 TS 40 1006 0 25 27
2000279N29279 2000 93 NA NA LESLIE 2000-10-07 15:00:00 TS 36.3755 -67.5976 main 625 560 P_____________ AL162000 36.3755 -67.5976 TS 40 1005 0 24 33
2000279N29279 2000 93 NA NA LESLIE 2000-10-07 18:00:00 ET 37.4000 -66.7000 40 1005 hurdat_atl main 555 509 O_____________ hurdat_atl AL162000 37.4000 -66.7000 EX 40 1005 -4 28 36
2000279N29279 2000 93 NA NA LESLIE 2000-10-07 21:00:00 ET 38.6225 -65.5225 main 514 412 P_____________ AL162000 38.6225 -65.5225 EX 40 1004 -4 33 39
2000279N29279 2000 93 NA NA LESLIE 2000-10-08 00:00:00 ET 40.0000 -64.0000 40 1004 hurdat_atl main 403 344 O_____________ hurdat_atl AL162000 40.0000 -64.0000 EX 40 1004 -4 39 43
2000279N29279 2000 93 NA NA LESLIE 2000-10-08 03:00:00 ET 41.4748 -62.0271 main 342 267 P_____________ AL162000 41.4748 -62.0271 EX 40 1003 -4 42 45
2000279N29279 2000 93 NA NA LESLIE 2000-10-08 06:00:00 ET 43.0000 -60.0000 40 1003 hurdat_atl main 259 199 O_____________ hurdat_atl AL162000 43.0000 -60.0000 EX 40 1003 -4 40 41
2000279N29279 2000 93 NA NA LESLIE 2000-10-08 09:00:00 ET 44.4945 -58.4122 main 196 146 P_____________ AL162000 44.4945 -58.4122 EX 40 1003 -4 37 35
2000279N29279 2000 93 NA NA LESLIE 2000-10-08 12:00:00 ET 46.0000 -57.0000 40 1003 hurdat_atl main 133 0 O_____________ hurdat_atl AL162000 46.0000 -57.0000 EX 40 1003 -4 37 33
2000279N29279 2000 93 NA NA LESLIE 2000-10-08 15:00:00 ET 47.5697 -55.5681 main 0 0 P_____________ AL162000 47.5697 -55.5681 EX 37 1004 -4 36 34
2000279N29279 2000 93 NA NA LESLIE 2000-10-08 18:00:00 ET 49.0000 -54.0000 35 1005 hurdat_atl main 0 0 O_____________ hurdat_atl AL162000 49.0000 -54.0000 EX 35 1005 -4 34 43
2000279N29279 2000 93 NA NA LESLIE 2000-10-08 21:00:00 ET 50.0750 -52.0638 main 133 133 P_____________ AL162000 50.0750 -52.0638 EX 35 1006 -4 32 52
2000279N29279 2000 93 NA NA LESLIE 2000-10-09 00:00:00 ET 51.0000 -50.0000 35 1007 hurdat_atl main 311 311 O_____________ hurdat_atl AL162000 51.0000 -50.0000 EX 35 1007 -4 32 53
2000279N29279 2000 93 NA NA LESLIE 2000-10-09 03:00:00 ET 51.9928 -48.0606 main 482 482 P_____________ AL162000 51.9928 -48.0606 EX 35 1006 -4 32 51
2000279N29279 2000 93 NA NA LESLIE 2000-10-09 06:00:00 ET 53.0000 -46.0000 35 1006 hurdat_atl main 646 646 O_____________ hurdat_atl AL162000 53.0000 -46.0000 EX 35 1006 -4 34 52
2000279N29279 2000 93 NA NA LESLIE 2000-10-09 09:00:00 ET 54.0740 -43.5820 main 656 577 P_____________ AL162000 54.0740 -43.5820 EX 35 1005 -4 35 56
2000279N29279 2000 93 NA NA LESLIE 2000-10-09 12:00:00 ET 55.0000 -41.0000 35 1005 hurdat_atl main 578 553 O_____________ hurdat_atl AL162000 55.0000 -41.0000 EX 35 1005 -4 33 61
2000279N29279 2000 93 NA NA LESLIE 2000-10-09 15:00:00 ET 55.6392 -38.5679 main 563 559 P_____________ AL162000 55.6392 -38.5679 EX 35 1004 -4 30 70
2000279N29279 2000 93 NA NA LESLIE 2000-10-09 18:00:00 ET 56.0000 -36.0000 35 1003 hurdat_atl main 614 614 O_____________ hurdat_atl AL162000 56.0000 -36.0000 EX 35 1003 -4 31 81
2000279N29279 2000 93 NA NA LESLIE 2000-10-09 21:00:00 ET 56.1468 -33.0764 main 731 731 P_____________ AL162000 56.1468 -33.0764 EX 37 1001 -4 33 90
2000279N29279 2000 93 NA NA LESLIE 2000-10-10 00:00:00 ET 56.0000 -30.0000 40 999 hurdat_atl main 888 888 O_____________ hurdat_atl AL162000 56.0000 -30.0000 EX 40 999 -4 34 100
2000279N29279 2000 93 NA NA LESLIE 2000-10-10 03:00:00 ET 55.5611 -27.0670 main 939 905 P_____________ AL162000 55.5611 -27.0670 EX 45 993 -4 35 106
2000279N29279 2000 93 NA NA LESLIE 2000-10-10 06:00:00 ET 55.0000 -24.0000 50 987 hurdat_atl main 893 689 O_____________ hurdat_atl AL162000 55.0000 -24.0000 EX 50 987 -4 39 106
2000279N29279 2000 93 NA NA LESLIE 2000-10-10 09:00:00 ET 54.4960 -20.5794 main 676 460 P_____________ AL162000 54.4960 -20.5794 EX 52 983 -4 42 104
2000279N29279 2000 93 NA NA LESLIE 2000-10-10 12:00:00 ET 54.0000 -17.0000 55 980 hurdat_atl main 447 230 O_____________ hurdat_atl AL162000 54.0000 -17.0000 EX 55 980 -4 43 103
2000279N29279 2000 93 NA NA LESLIE 2000-10-10 15:00:00 ET 53.5175 -13.4626 main 217 35 P_____________ AL162000 53.5175 -13.4626 EX 57 976 -4 43 104
2000279N29279 2000 93 NA NA LESLIE 2000-10-10 18:00:00 ET 53.0000 -10.0000 60 973 hurdat_atl main 33 O_____________ hurdat_atl AL162000 53.0000 -10.0000 EX 60 973 -4 43 104

IBTrACS Databaseについて

本データベースは、米国NOAAが公開する1842年以降の世界の熱帯低気圧のベストトラックデータアーカイブInternational Best Track Archive for Climate Stewardship (IBTrACS)を、ウェブで閲覧しやすい形式に変換したものです。

最終更新日:2021-12-03